createdAt,value
2019-01-05T00:01:09.344Z,2.24
2019-01-05T00:03:58.544Z,2.40
2019-01-05T00:06:54.330Z,2.25
2019-01-05T00:09:44.736Z,2.26
2019-01-05T00:12:33.787Z,2.32
2019-01-05T00:15:42.677Z,2.34
2019-01-05T00:18:42.209Z,2.58
2019-01-05T00:21:31.441Z,2.45
2019-01-05T00:24:22.278Z,2.44
2019-01-05T00:27:16.977Z,2.48
2019-01-05T00:30:07.721Z,2.52
2019-01-05T00:33:09.262Z,2.65
2019-01-05T00:36:21.492Z,2.54
2019-01-05T00:39:18.159Z,2.50
2019-01-05T00:42:08.264Z,2.57
2019-01-05T00:45:04.557Z,2.58
2019-01-05T00:47:53.987Z,2.53
2019-01-05T00:50:51.687Z,2.61
2019-01-05T00:53:40.763Z,2.75
2019-01-05T00:56:30.009Z,2.87
2019-01-05T00:59:30.844Z,2.90
2019-01-05T01:02:30.319Z,2.73
2019-01-05T01:05:30.073Z,2.70
2019-01-05T01:08:29.054Z,2.60
2019-01-05T01:11:19.464Z,2.60
2019-01-05T01:14:10.077Z,2.69
2019-01-05T01:17:07.797Z,2.78
2019-01-05T01:20:08.626Z,2.71
2019-01-05T01:22:50.636Z,2.66
2019-01-05T01:25:36.026Z,2.70
2019-01-05T01:28:26.412Z,2.68
2019-01-05T01:31:17.743Z,2.61
2019-01-05T01:34:14.251Z,2.59
2019-01-05T01:37:04.663Z,2.73
2019-01-05T01:39:53.652Z,2.52
2019-01-05T01:42:42.818Z,2.84
2019-01-05T01:45:45.787Z,2.83
2019-01-05T01:48:39.486Z,2.74
2019-01-05T01:51:28.686Z,2.72
2019-01-05T01:54:22.032Z,2.71
2019-01-05T01:57:11.460Z,2.73
2019-01-05T02:00:15.788Z,2.83
2019-01-05T02:03:22.297Z,2.81
2019-01-05T02:06:11.469Z,2.90
2019-01-05T02:09:21.027Z,2.77
2019-01-05T02:12:16.757Z,2.88
2019-01-05T02:15:17.352Z,2.89
2019-01-05T02:19:03.889Z,2.88
2019-01-05T02:22:56.830Z,2.89
2019-01-05T02:26:29.368Z,2.82
2019-01-05T02:30:23.271Z,2.91
2019-01-05T02:34:00.738Z,3.06
2019-01-05T02:38:08.919Z,3.08
2019-01-05T02:41:48.421Z,2.98
2019-01-05T02:45:51.756Z,3.24
2019-01-05T02:49:09.208Z,3.09
2019-01-05T02:52:57.863Z,3.27
2019-01-05T02:56:45.663Z,3.29
2019-01-05T03:00:58.482Z,3.31
2019-01-05T03:04:35.179Z,3.15
2019-01-05T03:08:33.237Z,3.30
2019-01-05T03:12:05.681Z,3.10
2019-01-05T03:16:06.063Z,3.18
2019-01-05T03:19:58.127Z,3.14
2019-01-05T03:24:15.509Z,3.34
2019-01-05T03:28:00.289Z,3.30
2019-01-05T03:32:05.617Z,3.20
2019-01-05T03:36:00.604Z,3.35
2019-01-05T03:40:19.613Z,3.27
2019-01-05T03:44:02.945Z,3.29
2019-01-05T03:48:01.346Z,3.37
2019-01-05T03:51:36.702Z,3.60
2019-01-05T03:55:01.887Z,3.61
2019-01-05T03:58:52.894Z,3.43
2019-01-05T04:02:49.043Z,3.51
2019-01-05T04:06:44.321Z,3.85
2019-01-05T04:10:28.523Z,3.93
2019-01-05T04:14:08.710Z,3.85
2019-01-05T04:18:06.694Z,3.99
2019-01-05T04:22:23.292Z,3.52
2019-01-05T04:26:15.048Z,3.61
2019-01-05T04:29:49.907Z,3.54
2019-01-05T04:33:32.912Z,3.73
2019-01-05T04:37:36.576Z,3.87
2019-01-05T04:41:17.101Z,3.83
2019-01-05T04:45:33.598Z,4.18
2019-01-05T04:49:09.867Z,4.05
2019-01-05T04:53:08.859Z,4.14
2019-01-05T04:57:15.954Z,4.71
2019-01-05T05:01:09.341Z,4.98
2019-01-05T05:05:12.643Z,5.11
2019-01-05T05:08:57.318Z,4.80
2019-01-05T05:12:55.441Z,4.74
2019-01-05T05:16:52.571Z,4.76
2019-01-05T05:20:50.230Z,4.82
2019-01-05T05:24:46.217Z,5.20
2019-01-05T05:28:22.036Z,5.11
2019-01-05T05:32:14.383Z,5.21
2019-01-05T05:36:15.231Z,5.26
2019-01-05T05:39:58.228Z,5.16
2019-01-05T05:43:49.346Z,5.19
2019-01-05T05:47:41.086Z,5.11
2019-01-05T05:51:23.231Z,5.22
2019-01-05T05:55:25.988Z,5.34
2019-01-05T05:59:16.680Z,5.26
2019-01-05T06:02:37.154Z,5.26
2019-01-05T06:06:16.697Z,5.25
2019-01-05T06:10:13.770Z,5.58
2019-01-05T06:14:14.399Z,5.16
2019-01-05T06:17:51.596Z,5.10
2019-01-05T06:21:46.401Z,5.49
2019-01-05T06:25:44.999Z,5.46
2019-01-05T06:29:40.931Z,5.36
2019-01-05T06:33:43.803Z,5.40
2019-01-05T06:37:43.574Z,5.59
2019-01-05T06:41:23.199Z,5.69
2019-01-05T06:45:29.552Z,5.49
2019-01-05T06:49:14.098Z,5.42
2019-01-05T06:53:10.380Z,5.78
2019-01-05T06:57:05.699Z,5.38
2019-01-05T07:01:17.265Z,5.26
2019-01-05T07:05:16.995Z,5.21
2019-01-05T07:09:06.717Z,5.26
2019-01-05T07:12:51.743Z,5.28
2019-01-05T07:16:51.686Z,5.26
2019-01-05T07:20:58.475Z,5.31
2019-01-05T07:24:43.967Z,5.46
2019-01-05T07:28:26.907Z,5.44
2019-01-05T07:32:30.098Z,5.38
2019-01-05T07:36:30.419Z,5.46
2019-01-05T07:40:37.099Z,5.42
2019-01-05T07:44:32.628Z,5.85
2019-01-05T07:48:19.544Z,5.61
2019-01-05T07:52:24.056Z,5.58
2019-01-05T07:56:07.438Z,5.72
2019-01-05T07:59:33.024Z,5.62
2019-01-05T08:03:32.972Z,5.60
2019-01-05T08:07:15.229Z,5.57
2019-01-05T08:11:41.738Z,5.57
2019-01-05T08:15:39.967Z,6.14
2019-01-05T08:20:11.155Z,5.92
2019-01-05T08:24:09.715Z,5.99
2019-01-05T08:28:14.647Z,5.83
2019-01-05T08:32:02.529Z,6.04
2019-01-05T08:36:08.070Z,5.75
2019-01-05T08:39:55.937Z,5.70
2019-01-05T08:44:08.568Z,5.71
2019-01-05T08:48:05.029Z,5.69
2019-01-05T08:51:56.821Z,5.81
2019-01-05T08:56:00.613Z,5.76
2019-01-05T09:00:01.164Z,5.78
2019-01-05T09:03:47.100Z,5.72
2019-01-05T09:07:57.660Z,5.81
2019-01-05T09:11:38.297Z,5.58
2019-01-05T09:15:10.966Z,5.76
2019-01-05T09:18:47.939Z,5.71
2019-01-05T09:22:36.062Z,5.67
2019-01-05T09:26:30.310Z,5.55
2019-01-05T09:30:21.834Z,5.52
2019-01-05T09:34:14.797Z,5.51
2019-01-05T09:38:12.300Z,5.42
2019-01-05T09:42:05.676Z,5.46
2019-01-05T09:46:03.360Z,5.33
2019-01-05T09:49:48.631Z,5.65
2019-01-05T09:54:07.843Z,5.40
2019-01-05T09:58:08.414Z,5.75
2019-01-05T10:02:02.040Z,5.57
2019-01-05T10:05:43.814Z,5.44
2019-01-05T10:10:06.449Z,5.54
2019-01-05T10:13:45.835Z,5.40
2019-01-05T10:17:33.489Z,5.58
2019-01-05T10:21:32.421Z,5.45
2019-01-05T10:25:37.995Z,5.46
2019-01-05T10:29:41.133Z,5.34
2019-01-05T10:33:58.419Z,5.28
2019-01-05T10:37:51.314Z,5.33
2019-01-05T10:41:58.364Z,5.34
2019-01-05T10:45:41.147Z,5.42
2019-01-05T10:49:40.036Z,5.42
2019-01-05T10:53:41.652Z,5.28
2019-01-05T10:57:35.229Z,5.44
2019-01-05T11:01:23.499Z,5.27
2019-01-05T11:05:12.998Z,5.34
2019-01-05T11:09:05.279Z,5.26
2019-01-05T11:13:06.248Z,5.35
2019-01-05T11:17:07.565Z,5.21
2019-01-05T11:21:18.506Z,5.35
2019-01-05T11:25:19.366Z,5.39
2019-01-05T11:28:56.224Z,5.49
2019-01-05T11:32:45.552Z,5.41
2019-01-05T11:36:49.993Z,5.71
2019-01-05T11:40:59.734Z,5.89
2019-01-05T11:44:59.082Z,6.02
2019-01-05T11:48:38.612Z,6.05
2019-01-05T11:52:26.900Z,6.58
2019-01-05T11:56:33.906Z,6.37
2019-01-05T12:00:04.639Z,7.42
2019-01-05T12:04:11.443Z,7.17
2019-01-05T12:07:52.721Z,7.49
2019-01-05T12:11:43.539Z,8.23
2019-01-05T12:15:42.472Z,8.27
2019-01-05T12:19:37.266Z,7.63
2019-01-05T12:23:28.511Z,7.26
2019-01-05T12:27:28.235Z,7.37
2019-01-05T12:31:03.766Z,6.40
2019-01-05T12:34:42.551Z,6.07
2019-01-05T12:38:45.776Z,6.74
2019-01-05T12:42:54.160Z,6.98
2019-01-05T12:46:47.411Z,7.03
2019-01-05T12:50:56.695Z,6.71
2019-01-05T12:54:39.267Z,7.27
2019-01-05T12:58:25.117Z,7.18
2019-01-05T13:02:47.799Z,7.32
2019-01-05T13:06:49.019Z,7.73
2019-01-05T13:10:55.562Z,8.05
2019-01-05T13:14:35.499Z,7.10
2019-01-05T13:18:53.493Z,6.35
2019-01-05T13:23:00.035Z,6.22
2019-01-05T13:27:04.150Z,6.02
2019-01-05T13:31:09.750Z,5.87
2019-01-05T13:35:01.117Z,6.07
2019-01-05T13:39:37.171Z,6.00
2019-01-05T13:43:14.111Z,5.81
2019-01-05T13:47:33.508Z,5.65
2019-01-05T13:50:44.288Z,5.68
2019-01-05T13:53:58.991Z,5.65
2019-01-05T13:57:06.983Z,5.57
2019-01-05T14:00:12.217Z,5.60
2019-01-05T14:03:05.567Z,5.61
2019-01-05T14:06:02.068Z,5.68
2019-01-05T14:09:06.671Z,5.67
2019-01-05T14:12:00.166Z,5.55
2019-01-05T14:14:49.411Z,5.41
2019-01-05T14:17:40.369Z,5.49
2019-01-05T14:20:40.169Z,5.58
2019-01-05T14:23:29.564Z,5.59
2019-01-05T14:26:20.264Z,5.53
2019-01-05T14:29:14.659Z,5.75
2019-01-05T14:32:20.121Z,5.53
2019-01-05T14:35:22.820Z,5.70
2019-01-05T14:38:13.224Z,6.09
2019-01-05T14:41:09.519Z,5.87
2019-01-05T14:44:03.041Z,5.93
2019-01-05T14:46:53.542Z,5.49
2019-01-05T14:49:46.693Z,5.35
2019-01-05T14:52:35.854Z,5.59
2019-01-05T14:55:24.806Z,5.23
2019-01-05T14:58:14.108Z,5.38
2019-01-05T15:01:12.849Z,5.33
2019-01-05T15:04:12.585Z,5.43
2019-01-05T15:07:05.793Z,5.35
2019-01-05T15:10:05.202Z,5.45
2019-01-05T15:12:54.517Z,5.38
2019-01-05T15:15:43.799Z,5.23
2019-01-05T15:18:33.135Z,4.63
2019-01-05T15:21:26.084Z,4.63
2019-01-05T15:24:15.393Z,4.78
2019-01-05T15:27:05.890Z,4.56
2019-01-05T15:29:55.263Z,4.64
2019-01-05T15:32:51.895Z,4.53
2019-01-05T15:35:40.986Z,4.32
2019-01-05T15:38:43.379Z,4.31
2019-01-05T15:41:32.700Z,4.12
2019-01-05T15:44:23.158Z,4.10
2019-01-05T15:47:16.434Z,3.92
2019-01-05T15:50:19.348Z,3.95
2019-01-05T15:53:12.694Z,3.81
2019-01-05T15:56:03.124Z,3.85
2019-01-05T15:58:59.470Z,3.77
2019-01-05T16:01:57.040Z,3.75
2019-01-05T16:04:53.665Z,3.62
2019-01-05T16:07:56.148Z,3.69
2019-01-05T16:10:45.315Z,3.76
2019-01-05T16:13:34.470Z,3.93
2019-01-05T16:16:40.231Z,3.95
2019-01-05T16:19:30.401Z,4.03
2019-01-05T16:22:22.564Z,3.63
2019-01-05T16:25:26.741Z,3.50
2019-01-05T16:28:23.166Z,3.55
2019-01-05T16:31:17.574Z,3.77
2019-01-05T16:34:22.646Z,3.69
2019-01-05T16:37:14.096Z,3.61
2019-01-05T16:40:16.634Z,3.60
2019-01-05T16:43:11.447Z,3.57
2019-01-05T16:46:10.849Z,3.71
2019-01-05T16:49:01.545Z,3.70
2019-01-05T16:52:16.436Z,3.73
2019-01-05T16:55:10.140Z,3.71
2019-01-05T16:58:09.411Z,3.55
2019-01-05T17:01:09.194Z,3.48
2019-01-05T17:04:10.776Z,3.55
2019-01-05T17:07:01.218Z,3.58
2019-01-05T17:09:49.724Z,3.46
2019-01-05T17:12:50.388Z,3.49
2019-01-05T17:16:25.502Z,3.42
2019-01-05T17:19:19.358Z,3.34
2019-01-05T17:22:05.351Z,3.28
2019-01-05T17:25:01.997Z,3.29
2019-01-05T17:27:51.401Z,3.23
2019-01-05T17:30:41.809Z,3.32
2019-01-05T17:33:33.294Z,3.15
2019-01-05T17:36:23.974Z,3.25
2019-01-05T17:39:14.966Z,3.08
2019-01-05T17:42:17.840Z,3.11
2019-01-05T17:45:08.232Z,3.15
2019-01-05T17:47:57.359Z,3.06
2019-01-05T17:51:03.375Z,2.82
2019-01-05T17:54:02.784Z,3.03
2019-01-05T17:57:08.549Z,2.89
2019-01-05T18:00:01.769Z,2.80
2019-01-05T18:03:04.492Z,2.79
2019-01-05T18:05:53.213Z,2.76
2019-01-05T18:08:52.954Z,2.70
2019-01-05T18:11:42.275Z,2.57
2019-01-05T18:14:31.345Z,2.71
2019-01-05T18:17:15.025Z,2.61
2019-01-05T18:20:04.352Z,2.54
2019-01-05T18:22:54.807Z,2.55
2019-01-05T18:25:57.300Z,2.51
2019-01-05T18:28:46.607Z,2.46
2019-01-05T18:31:46.988Z,2.44
2019-01-05T18:34:33.679Z,2.35
2019-01-05T18:37:23.173Z,2.48
2019-01-05T18:40:22.733Z,2.38
2019-01-05T18:43:24.220Z,2.30
2019-01-05T18:46:30.015Z,2.29
2019-01-05T18:49:19.179Z,2.24
2019-01-05T18:52:08.265Z,2.09
2019-01-05T18:54:57.303Z,2.24
2019-01-05T18:57:46.673Z,2.21
2019-01-05T19:00:36.811Z,2.23
2019-01-05T19:03:33.491Z,2.13
2019-01-05T19:06:37.264Z,2.21
2019-01-05T19:09:28.738Z,2.18
2019-01-05T19:12:19.470Z,2.17
2019-01-05T19:15:16.038Z,2.08
2019-01-05T19:18:13.390Z,1.98
2019-01-05T19:21:15.971Z,1.99
2019-01-05T19:24:16.089Z,2.01
2019-01-05T19:27:05.157Z,2.16
2019-01-05T19:29:55.751Z,2.19
2019-01-05T19:32:44.854Z,2.17
2019-01-05T19:35:53.992Z,2.31
2019-01-05T19:38:48.335Z,2.11
2019-01-05T19:41:34.301Z,2.34
2019-01-05T19:44:23.502Z,2.27
2019-01-05T19:47:25.980Z,2.49
2019-01-05T19:50:31.541Z,2.84
2019-01-05T19:53:37.221Z,2.67
2019-01-05T19:57:02.527Z,2.75
2019-01-05T20:00:29.948Z,2.56
2019-01-05T20:04:39.144Z,2.58
2019-01-05T20:08:15.045Z,2.61
2019-01-05T20:11:05.507Z,2.59
2019-01-05T20:13:54.613Z,2.70
2019-01-05T20:16:48.101Z,2.37
2019-01-05T20:19:37.395Z,2.53
2019-01-05T20:22:26.611Z,2.50
2019-01-05T20:25:23.094Z,2.31
2019-01-05T20:28:12.170Z,2.28
2019-01-05T20:31:11.749Z,2.31
2019-01-05T20:34:20.573Z,2.08
2019-01-05T20:37:13.964Z,2.11
2019-01-05T20:39:53.203Z,2.19
2019-01-05T20:42:46.669Z,2.34
2019-01-05T20:45:39.875Z,2.31
2019-01-05T20:48:39.377Z,2.19
2019-01-05T20:51:28.524Z,2.18
2019-01-05T20:54:35.265Z,2.12
2019-01-05T20:57:25.682Z,2.36
2019-01-05T21:00:14.785Z,2.44
2019-01-05T21:02:59.285Z,2.59
2019-01-05T21:05:49.779Z,2.39
2019-01-05T21:08:44.689Z,2.35
2019-01-05T21:11:33.960Z,2.30
2019-01-05T21:14:23.210Z,2.32
2019-01-05T21:17:12.244Z,2.41
2019-01-05T21:20:02.678Z,2.43
2019-01-05T21:22:46.439Z,2.29
2019-01-05T21:25:42.940Z,2.32
2019-01-05T21:28:36.427Z,2.33
2019-01-05T21:31:30.040Z,2.15
2019-01-05T21:34:17.854Z,2.21
2019-01-05T21:37:07.510Z,2.18
2019-01-05T21:39:58.012Z,2.16
2019-01-05T21:43:03.322Z,2.07
2019-01-05T21:46:12.046Z,2.23
2019-01-05T21:49:14.650Z,2.06
2019-01-05T21:52:11.189Z,2.08
2019-01-05T21:55:00.488Z,1.99
2019-01-05T21:58:04.437Z,2.03
2019-01-05T22:00:52.699Z,2.13
2019-01-05T22:03:52.304Z,1.84
2019-01-05T22:06:44.058Z,1.97
2019-01-05T22:09:32.511Z,2.00
2019-01-05T22:12:35.424Z,1.90
2019-01-05T22:15:26.923Z,2.05
2019-01-05T22:18:35.505Z,1.65
2019-01-05T22:21:25.975Z,1.68
2019-01-05T22:24:19.570Z,1.64
2019-01-05T22:27:25.345Z,1.72
2019-01-05T22:30:14.665Z,1.84
2019-01-05T22:33:30.881Z,1.68
2019-01-05T22:36:36.665Z,1.53
2019-01-05T22:39:46.203Z,1.46
2019-01-05T22:42:38.399Z,1.86
2019-01-05T22:45:29.197Z,1.60
2019-01-05T22:48:15.647Z,1.89
2019-01-05T22:51:06.182Z,1.85
2019-01-05T22:53:55.505Z,1.77
2019-01-05T22:56:53.652Z,1.82
2019-01-05T22:59:53.354Z,1.67
2019-01-05T23:02:50.111Z,1.72
2019-01-05T23:05:42.522Z,1.53
2019-01-05T23:08:31.737Z,1.61
2019-01-05T23:11:32.623Z,1.71
2019-01-05T23:14:29.002Z,1.71
2019-01-05T23:17:22.610Z,1.74
2019-01-05T23:20:12.129Z,1.46
2019-01-05T23:23:02.578Z,1.43
2019-01-05T23:26:05.213Z,1.20
2019-01-05T23:29:10.841Z,1.24
2019-01-05T23:32:00.815Z,1.26
2019-01-05T23:34:43.772Z,1.15
2019-01-05T23:37:37.168Z,1.08
2019-01-05T23:40:26.481Z,1.04
2019-01-05T23:43:12.322Z,1.14
2019-01-05T23:46:08.885Z,1.17
2019-01-05T23:49:08.613Z,1.31
2019-01-05T23:51:58.040Z,1.17
2019-01-05T23:55:00.732Z,1.10
2019-01-05T23:57:51.222Z,1.07
